createdAt,value
2023-04-13T00:02:24.798Z,94.68
2023-04-13T00:04:54.857Z,94.88
2023-04-13T00:07:23.096Z,94.68
2023-04-13T00:09:50.788Z,95.06
2023-04-13T00:12:21.391Z,95.42
2023-04-13T00:14:50.894Z,95.60
2023-04-13T00:17:18.231Z,95.58
2023-04-13T00:19:48.119Z,95.84
2023-04-13T00:22:15.720Z,95.85
2023-04-13T00:24:44.157Z,95.79
2023-04-13T00:27:12.330Z,95.93
2023-04-13T00:29:39.259Z,95.98
2023-04-13T00:32:06.634Z,96.22
2023-04-13T00:34:33.984Z,96.27
2023-04-13T00:37:02.235Z,96.29
2023-04-13T00:39:31.193Z,96.29
2023-04-13T00:41:59.978Z,96.61
2023-04-13T00:44:28.515Z,96.71
2023-04-13T00:46:56.527Z,96.68
2023-04-13T00:49:23.779Z,96.83
2023-04-13T00:51:51.398Z,97.08
2023-04-13T00:54:18.726Z,97.13
2023-04-13T00:56:46.807Z,97.45
2023-04-13T00:59:14.312Z,97.54
2023-04-13T01:01:51.053Z,97.73
2023-04-13T01:04:19.999Z,97.69
2023-04-13T01:07:08.945Z,97.70
2023-04-13T01:10:13.329Z,98.00
2023-04-13T01:13:17.857Z,98.02
2023-04-13T01:16:01.543Z,98.22
2023-04-13T01:18:33.357Z,98.19
2023-04-13T01:21:02.445Z,98.47
2023-04-13T01:24:07.014Z,98.68
2023-04-13T01:26:58.525Z,99.01
2023-04-13T01:29:27.498Z,99.19
2023-04-13T01:31:55.870Z,99.06
2023-04-13T01:34:24.683Z,99.11
2023-04-13T01:36:51.647Z,99.02
2023-04-13T01:39:22.290Z,98.98
2023-04-13T01:41:59.264Z,99.10
2023-04-13T01:44:33.237Z,99.14
2023-04-13T01:47:16.494Z,99.29
2023-04-13T01:50:25.882Z,99.49
2023-04-13T01:53:08.281Z,99.76
2023-04-13T01:55:42.116Z,99.67
2023-04-13T01:58:13.708Z,100.00
2023-04-13T02:00:43.198Z,100.00
2023-04-13T02:03:15.614Z,100.00
2023-04-13T02:05:43.436Z,100.00
2023-04-13T02:08:10.738Z,99.95
2023-04-13T02:10:45.309Z,99.98
2023-04-13T02:13:13.567Z,100.00
2023-04-13T02:15:42.806Z,100.00
2023-04-13T02:18:11.621Z,100.00
2023-04-13T02:20:44.024Z,100.00
2023-04-13T02:23:18.063Z,100.00
2023-04-13T02:25:47.862Z,100.00
2023-04-13T02:28:18.146Z,100.00
2023-04-13T02:30:47.177Z,100.00
2023-04-13T02:33:14.566Z,100.00
2023-04-13T02:35:42.411Z,100.00
2023-04-13T02:38:11.648Z,100.00
2023-04-13T02:40:41.308Z,100.00
2023-04-13T02:43:08.890Z,100.00
2023-04-13T02:45:40.167Z,100.00
2023-04-13T02:48:10.779Z,100.00
2023-04-13T02:50:38.951Z,100.00
2023-04-13T02:53:09.291Z,100.00
2023-04-13T02:55:39.121Z,100.00
2023-04-13T02:58:11.000Z,100.00
2023-04-13T03:00:38.850Z,100.00
2023-04-13T03:03:11.099Z,100.00
2023-04-13T03:05:43.933Z,100.00
2023-04-13T03:08:15.864Z,100.00
2023-04-13T03:10:56.501Z,100.00
2023-04-13T03:13:24.546Z,100.00
2023-04-13T03:15:57.931Z,100.00
2023-04-13T03:18:27.314Z,100.00
2023-04-13T03:20:55.802Z,100.00
2023-04-13T03:23:26.959Z,100.00
2023-04-13T03:25:54.677Z,100.00
2023-04-13T03:28:23.873Z,100.00
2023-04-13T03:30:52.496Z,100.00
2023-04-13T03:33:19.521Z,100.00
2023-04-13T03:35:47.477Z,100.00
2023-04-13T03:38:23.134Z,100.00
2023-04-13T03:40:52.667Z,100.00
2023-04-13T03:43:19.527Z,100.00
2023-04-13T03:45:55.716Z,100.00
2023-04-13T03:48:23.505Z,100.00
2023-04-13T03:50:56.318Z,100.00
2023-04-13T03:53:28.566Z,100.00
2023-04-13T03:55:57.038Z,100.00
2023-04-13T03:58:23.980Z,100.00
2023-04-13T04:00:52.256Z,100.00
2023-04-13T04:03:32.214Z,100.00
2023-04-13T04:06:05.594Z,100.00
2023-04-13T04:08:32.729Z,100.00
2023-04-13T04:11:04.706Z,100.00
2023-04-13T04:13:33.197Z,100.00
2023-04-13T04:16:07.247Z,100.00
2023-04-13T04:18:36.474Z,100.00
2023-04-13T04:21:06.863Z,99.65
2023-04-13T04:23:37.947Z,99.29
2023-04-13T04:26:07.175Z,99.41
2023-04-13T04:28:42.442Z,99.30
2023-04-13T04:31:15.082Z,99.08
2023-04-13T04:33:47.054Z,97.85
2023-04-13T04:36:16.705Z,97.67
2023-04-13T04:38:58.339Z,97.91
2023-04-13T04:41:27.100Z,97.54
2023-04-13T04:43:57.726Z,97.51
2023-04-13T04:46:29.959Z,97.22
2023-04-13T04:49:03.078Z,96.48
2023-04-13T04:51:31.523Z,95.83
2023-04-13T04:54:01.518Z,95.06
2023-04-13T04:56:29.389Z,93.81
2023-04-13T04:58:57.101Z,92.59
2023-04-13T05:01:34.994Z,91.60
2023-04-13T05:04:08.738Z,90.73
2023-04-13T05:06:41.547Z,91.47
2023-04-13T05:09:12.034Z,91.77
2023-04-13T05:11:44.585Z,91.73
2023-04-13T05:14:13.482Z,91.53
2023-04-13T05:16:41.080Z,90.75
2023-04-13T05:19:18.230Z,89.84
2023-04-13T05:21:51.988Z,89.57
2023-04-13T05:24:19.712Z,88.78
2023-04-13T05:26:48.473Z,87.80
2023-04-13T05:29:21.276Z,87.71
2023-04-13T05:31:49.781Z,87.66
2023-04-13T05:34:18.417Z,86.97
2023-04-13T05:37:11.456Z,86.92
2023-04-13T05:39:40.134Z,86.93
2023-04-13T05:42:08.653Z,86.58
2023-04-13T05:44:41.242Z,86.61
2023-04-13T05:47:09.557Z,86.53
2023-04-13T05:49:36.612Z,84.85
2023-04-13T05:52:06.956Z,84.93
2023-04-13T05:54:42.845Z,84.79
2023-04-13T05:57:10.388Z,84.55
2023-04-13T05:59:41.244Z,82.75
2023-04-13T06:02:09.603Z,81.98
2023-04-13T06:04:36.882Z,81.70
2023-04-13T06:07:04.483Z,82.25
2023-04-13T06:09:32.175Z,82.15
2023-04-13T06:12:00.754Z,82.65
2023-04-13T06:14:29.115Z,83.10
2023-04-13T06:16:57.363Z,83.00
2023-04-13T06:19:26.849Z,83.38
2023-04-13T06:21:56.311Z,83.52
2023-04-13T06:24:24.132Z,83.19
2023-04-13T06:26:55.395Z,83.37
2023-04-13T06:29:24.413Z,84.16
2023-04-13T06:32:01.321Z,84.16
2023-04-13T06:34:31.788Z,83.40
2023-04-13T06:37:02.215Z,83.66
2023-04-13T06:39:37.908Z,82.05
2023-04-13T06:42:09.760Z,81.72
2023-04-13T06:44:57.056Z,80.25
2023-04-13T06:47:28.704Z,80.40
2023-04-13T06:49:56.446Z,79.09
2023-04-13T06:52:24.322Z,78.15
2023-04-13T06:54:51.615Z,77.79
2023-04-13T06:57:35.024Z,78.02
2023-04-13T07:00:02.334Z,77.79
2023-04-13T07:02:30.759Z,77.52
2023-04-13T07:05:00.126Z,77.09
2023-04-13T07:07:31.236Z,76.68
2023-04-13T07:10:00.450Z,76.51
2023-04-13T07:12:29.043Z,76.58
2023-04-13T07:14:56.743Z,75.05
2023-04-13T07:17:25.066Z,75.06
2023-04-13T07:19:53.183Z,75.06
2023-04-13T07:22:20.896Z,74.72
2023-04-13T07:24:50.242Z,73.61
2023-04-13T07:27:20.539Z,72.73
2023-04-13T07:29:51.870Z,72.35
2023-04-13T07:32:28.068Z,72.06
2023-04-13T07:35:02.680Z,71.52
2023-04-13T07:37:34.995Z,69.86
2023-04-13T07:40:03.137Z,70.14
2023-04-13T07:42:33.251Z,69.76
2023-04-13T07:45:00.553Z,69.54
2023-04-13T07:47:30.050Z,69.13
2023-04-13T07:50:06.355Z,69.51
2023-04-13T07:52:35.041Z,69.50
2023-04-13T07:55:03.885Z,68.57
2023-04-13T07:57:36.868Z,68.29
2023-04-13T08:00:08.452Z,68.04
2023-04-13T08:02:46.506Z,67.82
2023-04-13T08:05:19.093Z,66.21
2023-04-13T08:07:49.324Z,66.38
2023-04-13T08:10:16.496Z,66.86
2023-04-13T08:12:44.874Z,66.66
2023-04-13T08:15:16.857Z,66.75
2023-04-13T08:17:45.553Z,65.87
2023-04-13T08:20:13.602Z,65.70
2023-04-13T08:22:41.647Z,65.98
2023-04-13T08:25:09.068Z,66.40
2023-04-13T08:27:37.066Z,66.43
2023-04-13T08:30:05.675Z,66.10
2023-04-13T08:32:43.380Z,65.46
2023-04-13T08:35:12.187Z,64.84
2023-04-13T08:37:40.312Z,63.79
2023-04-13T08:40:12.953Z,63.92
2023-04-13T08:42:43.053Z,63.56
2023-04-13T08:45:12.105Z,63.44
2023-04-13T08:47:45.892Z,62.45
2023-04-13T08:50:17.001Z,62.75
2023-04-13T08:52:50.112Z,63.16
2023-04-13T08:55:18.176Z,63.09
2023-04-13T08:57:54.211Z,62.96
2023-04-13T09:00:24.683Z,62.88
2023-04-13T09:03:05.645Z,62.93
2023-04-13T09:05:44.186Z,62.41
2023-04-13T09:08:14.640Z,62.38
2023-04-13T09:10:45.418Z,60.95
2023-04-13T09:13:12.983Z,61.17
2023-04-13T09:15:41.817Z,60.20
2023-04-13T09:18:24.108Z,59.91
2023-04-13T09:20:59.848Z,59.83
2023-04-13T09:23:28.020Z,58.97
2023-04-13T09:26:10.809Z,59.44
2023-04-13T09:28:50.629Z,59.63
2023-04-13T09:31:18.133Z,59.50
2023-04-13T09:33:48.887Z,59.25
2023-04-13T09:36:18.313Z,58.94
2023-04-13T09:38:52.366Z,59.46
2023-04-13T09:41:40.748Z,58.58
2023-04-13T09:44:20.630Z,58.41
2023-04-13T09:47:02.071Z,57.96
2023-04-13T09:49:42.327Z,57.98
2023-04-13T09:52:23.681Z,57.08
2023-04-13T09:55:01.554Z,55.99
2023-04-13T09:57:33.348Z,55.92
2023-04-13T10:00:01.776Z,55.71
2023-04-13T10:02:39.736Z,55.52
2023-04-13T10:05:11.638Z,54.77
2023-04-13T10:07:40.097Z,54.93
2023-04-13T10:10:08.364Z,54.39
2023-04-13T10:12:39.695Z,53.76
2023-04-13T10:15:14.917Z,54.04
2023-04-13T10:18:31.057Z,54.20
2023-04-13T10:21:00.164Z,54.43
2023-04-13T10:23:29.576Z,54.34
2023-04-13T10:26:00.315Z,51.28
2023-04-13T10:28:28.090Z,51.30
2023-04-13T10:30:55.428Z,51.97
2023-04-13T10:33:23.061Z,52.43
2023-04-13T10:35:58.956Z,51.85
2023-04-13T10:38:28.090Z,51.25
2023-04-13T10:40:55.904Z,50.10
2023-04-13T10:43:27.624Z,50.44
2023-04-13T10:46:11.762Z,50.62
2023-04-13T10:48:41.851Z,49.92
2023-04-13T10:51:09.722Z,48.66
2023-04-13T10:53:37.167Z,48.92
2023-04-13T10:56:25.676Z,47.33
2023-04-13T10:58:54.221Z,47.90
2023-04-13T11:01:23.037Z,47.63
2023-04-13T11:04:04.100Z,46.51
2023-04-13T11:06:40.501Z,45.93
2023-04-13T11:09:09.856Z,46.75
2023-04-13T11:11:40.825Z,47.58
2023-04-13T11:14:09.948Z,47.50
2023-04-13T11:16:46.331Z,47.26
2023-04-13T11:19:14.089Z,45.78
2023-04-13T11:21:44.788Z,45.88
2023-04-13T11:24:12.139Z,46.22
2023-04-13T11:26:41.665Z,46.40
2023-04-13T11:29:18.314Z,46.09
2023-04-13T11:31:46.116Z,47.40
2023-04-13T11:34:13.982Z,48.12
2023-04-13T11:36:43.246Z,47.80
2023-04-13T11:39:10.984Z,47.31
2023-04-13T11:41:43.110Z,46.88
2023-04-13T11:44:13.445Z,47.57
2023-04-13T11:46:41.535Z,47.63
2023-04-13T11:49:08.895Z,47.23
2023-04-13T11:51:37.725Z,47.23
2023-04-13T11:54:07.008Z,47.12
2023-04-13T11:56:34.544Z,46.66
2023-04-13T11:59:02.372Z,46.17
2023-04-13T12:01:34.131Z,44.86
2023-04-13T12:04:15.536Z,44.81
2023-04-13T12:06:47.405Z,44.37
2023-04-13T12:09:18.021Z,43.79
2023-04-13T12:12:15.902Z,43.87
2023-04-13T12:14:54.574Z,43.38
2023-04-13T12:17:41.390Z,43.64
2023-04-13T12:20:16.789Z,42.88
2023-04-13T12:22:54.834Z,43.23
2023-04-13T12:25:35.575Z,43.89
2023-04-13T12:28:04.390Z,44.12
2023-04-13T12:30:33.067Z,43.05
2023-04-13T12:33:00.906Z,39.25
2023-04-13T12:35:27.895Z,38.92
2023-04-13T12:37:55.562Z,39.94
2023-04-13T12:40:23.443Z,40.59
2023-04-13T12:42:50.824Z,40.14
2023-04-13T12:45:18.364Z,39.35
2023-04-13T12:47:45.908Z,39.41
2023-04-13T12:50:13.316Z,39.39
2023-04-13T12:52:43.196Z,39.75
2023-04-13T12:55:11.414Z,39.69
2023-04-13T12:57:39.859Z,39.15
2023-04-13T13:00:11.272Z,38.43
2023-04-13T13:02:39.182Z,38.62
2023-04-13T13:05:07.096Z,38.88
2023-04-13T13:07:35.452Z,39.11
2023-04-13T13:10:06.150Z,39.54
2023-04-13T13:12:37.853Z,37.53
2023-04-13T13:15:10.527Z,36.64
2023-04-13T13:17:41.686Z,34.13
2023-04-13T13:20:10.856Z,33.64
2023-04-13T13:22:38.315Z,33.71
2023-04-13T13:25:07.139Z,33.54
2023-04-13T13:28:05.612Z,33.34
2023-04-13T13:30:26.448Z,33.66
2023-04-13T13:32:53.722Z,33.63
2023-04-13T13:35:20.977Z,32.53
2023-04-13T13:37:48.316Z,32.86
2023-04-13T13:40:15.781Z,33.31
2023-04-13T13:42:51.833Z,33.37
2023-04-13T13:45:23.548Z,33.43
2023-04-13T13:47:55.901Z,32.60
2023-04-13T13:50:32.688Z,32.99
2023-04-13T13:53:04.406Z,32.96
2023-04-13T13:55:38.423Z,32.29
2023-04-13T13:58:05.950Z,32.03
2023-04-13T14:00:33.430Z,31.85
2023-04-13T14:03:01.133Z,30.47
2023-04-13T14:05:28.642Z,30.23
2023-04-13T14:07:55.860Z,30.71
2023-04-13T14:10:23.025Z,30.22
2023-04-13T14:12:50.992Z,29.73
2023-04-13T14:15:19.072Z,29.28
2023-04-13T14:17:52.854Z,29.97
2023-04-13T14:20:23.081Z,30.46
2023-04-13T14:22:51.207Z,31.35
2023-04-13T14:25:18.693Z,30.51
2023-04-13T14:27:47.264Z,30.71
2023-04-13T14:30:17.584Z,30.26
2023-04-13T14:32:47.068Z,30.04
2023-04-13T14:35:14.149Z,29.26
2023-04-13T14:37:41.788Z,30.06
2023-04-13T14:40:13.921Z,30.15
2023-04-13T14:42:41.401Z,30.02
2023-04-13T14:45:11.435Z,30.44
2023-04-13T14:47:40.325Z,30.89
2023-04-13T14:50:08.411Z,31.47
2023-04-13T14:52:36.005Z,30.74
2023-04-13T14:55:03.275Z,30.71
2023-04-13T14:57:31.658Z,30.47
2023-04-13T14:59:58.996Z,30.80
2023-04-13T15:02:28.527Z,31.57
2023-04-13T15:04:56.216Z,32.14
2023-04-13T15:07:29.431Z,32.15
2023-04-13T15:09:58.113Z,32.12
2023-04-13T15:12:25.725Z,32.29
2023-04-13T15:14:52.955Z,32.59
2023-04-13T15:17:21.266Z,32.50
2023-04-13T15:19:48.348Z,32.33
2023-04-13T15:22:16.184Z,32.44
2023-04-13T15:24:43.114Z,32.50
2023-04-13T15:27:11.243Z,32.30
2023-04-13T15:29:38.360Z,31.94
2023-04-13T15:32:05.963Z,31.59
2023-04-13T15:34:32.860Z,31.19
2023-04-13T15:37:00.437Z,31.72
2023-04-13T15:39:28.498Z,31.24
2023-04-13T15:41:57.899Z,30.31
2023-04-13T15:44:25.133Z,30.41
2023-04-13T15:46:52.997Z,30.62
2023-04-13T15:49:19.902Z,29.68
2023-04-13T15:51:47.189Z,29.05
2023-04-13T15:54:14.194Z,28.18
2023-04-13T15:56:43.901Z,28.54
2023-04-13T15:59:10.871Z,28.68
2023-04-13T16:01:46.901Z,28.25
2023-04-13T16:04:15.024Z,29.21
2023-04-13T16:06:42.708Z,29.19
2023-04-13T16:09:10.824Z,29.38
2023-04-13T16:11:42.285Z,29.21
2023-04-13T16:14:09.600Z,29.41
2023-04-13T16:16:47.003Z,29.82
2023-04-13T16:19:18.763Z,30.64
2023-04-13T16:21:47.034Z,30.47
2023-04-13T16:24:14.191Z,31.18
2023-04-13T16:26:42.065Z,31.31
2023-04-13T16:29:09.301Z,31.82
2023-04-13T16:31:37.242Z,31.90
2023-04-13T16:34:22.111Z,31.99
2023-04-13T16:36:52.764Z,31.75
2023-04-13T16:39:21.935Z,32.12
2023-04-13T16:41:49.325Z,31.87
2023-04-13T16:44:16.931Z,32.25
2023-04-13T16:46:44.624Z,32.20
2023-04-13T16:49:11.795Z,32.63
2023-04-13T16:51:39.304Z,32.86
2023-04-13T16:54:06.775Z,33.24
2023-04-13T16:56:34.052Z,33.78
2023-04-13T16:59:01.627Z,34.19
2023-04-13T17:01:30.797Z,34.56
2023-04-13T17:03:58.149Z,34.93
2023-04-13T17:06:27.240Z,35.35
2023-04-13T17:08:54.587Z,35.54
2023-04-13T17:11:23.080Z,35.78
2023-04-13T17:13:51.465Z,36.13
2023-04-13T17:16:18.765Z,36.48
2023-04-13T17:18:46.195Z,36.74
2023-04-13T17:21:13.915Z,36.79
2023-04-13T17:23:41.214Z,37.97
2023-04-13T17:26:08.493Z,38.71
2023-04-13T17:28:36.206Z,39.56
2023-04-13T17:31:03.938Z,41.28
2023-04-13T17:33:31.735Z,42.60
2023-04-13T17:35:59.351Z,42.94
2023-04-13T17:38:26.318Z,43.57
2023-04-13T17:40:54.485Z,44.09
2023-04-13T17:43:22.017Z,44.87
2023-04-13T17:45:49.894Z,45.96
2023-04-13T17:48:17.461Z,46.76
2023-04-13T17:50:46.511Z,47.31
2023-04-13T17:53:13.739Z,48.20
2023-04-13T17:55:41.248Z,48.60
2023-04-13T17:58:11.398Z,48.81
2023-04-13T18:00:38.995Z,49.36
2023-04-13T18:03:06.895Z,49.84
2023-04-13T18:05:35.388Z,50.36
2023-04-13T18:08:02.433Z,50.72
2023-04-13T18:10:31.032Z,51.47
2023-04-13T18:13:01.440Z,52.00
2023-04-13T18:15:28.928Z,52.54
2023-04-13T18:17:56.065Z,53.29
2023-04-13T18:20:23.526Z,53.83
2023-04-13T18:22:51.087Z,54.04
2023-04-13T18:25:19.011Z,54.25
2023-04-13T18:27:47.155Z,54.85
2023-04-13T18:30:16.753Z,55.67
2023-04-13T18:32:44.038Z,55.72
2023-04-13T18:35:13.159Z,56.04
2023-04-13T18:37:40.994Z,56.19
2023-04-13T18:40:09.406Z,56.80
2023-04-13T18:42:40.020Z,56.95
2023-04-13T18:45:08.170Z,57.46
2023-04-13T18:47:35.365Z,57.82
2023-04-13T18:50:02.941Z,58.49
2023-04-13T18:52:29.971Z,58.87
2023-04-13T18:54:57.197Z,58.97
2023-04-13T18:57:24.502Z,59.75
2023-04-13T18:59:51.913Z,59.95
2023-04-13T19:02:19.134Z,60.39
2023-04-13T19:04:47.093Z,60.49
2023-04-13T19:07:14.478Z,62.02
2023-04-13T19:09:42.055Z,62.12
2023-04-13T19:12:09.366Z,62.02
2023-04-13T19:14:36.613Z,61.79
2023-04-13T19:17:03.987Z,62.17
2023-04-13T19:19:31.221Z,62.60
2023-04-13T19:21:58.171Z,62.89
2023-04-13T19:24:26.672Z,63.00
2023-04-13T19:26:55.807Z,63.11
2023-04-13T19:29:25.575Z,63.35
2023-04-13T19:31:52.740Z,63.88
2023-04-13T19:34:19.886Z,64.21
2023-04-13T19:36:47.234Z,64.52
2023-04-13T19:39:14.556Z,64.91
2023-04-13T19:41:41.642Z,64.99
2023-04-13T19:44:09.150Z,65.16
2023-04-13T19:46:36.674Z,65.77
2023-04-13T19:49:03.821Z,66.10
2023-04-13T19:51:34.650Z,66.62
2023-04-13T19:54:04.980Z,67.09
2023-04-13T19:56:36.729Z,67.68
2023-04-13T19:59:05.265Z,68.25
2023-04-13T20:01:33.696Z,69.61
2023-04-13T20:04:04.457Z,69.66
2023-04-13T20:06:35.054Z,69.99
2023-04-13T20:09:11.000Z,71.12
2023-04-13T20:11:39.318Z,71.96
2023-04-13T20:14:06.692Z,72.42
2023-04-13T20:16:35.549Z,73.02
2023-04-13T20:19:03.370Z,73.94
2023-04-13T20:21:31.123Z,74.81
2023-04-13T20:23:59.646Z,75.00
2023-04-13T20:26:29.740Z,75.31
2023-04-13T20:29:05.955Z,76.17
2023-04-13T20:31:33.664Z,77.27
2023-04-13T20:34:03.174Z,77.39
2023-04-13T20:36:31.443Z,78.22
2023-04-13T20:39:01.676Z,78.86
2023-04-13T20:41:33.766Z,79.01
2023-04-13T20:44:01.487Z,79.42
2023-04-13T20:46:35.167Z,80.69
2023-04-13T20:49:05.508Z,81.01
2023-04-13T20:51:33.678Z,82.17
2023-04-13T20:54:02.960Z,82.40
2023-04-13T20:56:30.236Z,82.58
2023-04-13T20:58:58.364Z,82.63
2023-04-13T21:01:25.586Z,82.77
2023-04-13T21:03:53.252Z,83.77
2023-04-13T21:06:22.849Z,83.50
2023-04-13T21:08:52.767Z,84.04
2023-04-13T21:11:19.759Z,84.81
2023-04-13T21:13:47.324Z,84.68
2023-04-13T21:16:14.427Z,84.99
2023-04-13T21:18:42.624Z,85.35
2023-04-13T21:21:09.556Z,85.66
2023-04-13T21:23:37.525Z,87.09
2023-04-13T21:26:05.367Z,87.75
2023-04-13T21:28:32.730Z,87.73
2023-04-13T21:30:59.596Z,87.86
2023-04-13T21:33:27.343Z,88.17
2023-04-13T21:35:54.378Z,88.28
2023-04-13T21:38:22.046Z,88.58
2023-04-13T21:40:49.102Z,88.83
2023-04-13T21:43:17.036Z,89.59
2023-04-13T21:45:44.006Z,89.50
2023-04-13T21:48:11.639Z,89.71
2023-04-13T21:50:39.004Z,89.97
2023-04-13T21:53:06.736Z,90.08
2023-04-13T21:55:33.661Z,90.38
2023-04-13T21:58:01.216Z,90.95
2023-04-13T22:00:28.279Z,91.27
2023-04-13T22:02:55.843Z,91.44
2023-04-13T22:05:22.986Z,91.76
2023-04-13T22:07:50.373Z,92.14
2023-04-13T22:10:17.678Z,92.33
2023-04-13T22:12:44.817Z,92.58
2023-04-13T22:15:12.027Z,92.80
2023-04-13T22:17:39.336Z,93.48
2023-04-13T22:20:07.033Z,93.71
2023-04-13T22:22:34.477Z,93.82
2023-04-13T22:25:01.680Z,94.05
2023-04-13T22:27:28.861Z,94.32
2023-04-13T22:29:55.857Z,94.58
2023-04-13T22:32:23.309Z,94.81
2023-04-13T22:34:50.792Z,94.84
2023-04-13T22:37:17.984Z,95.15
2023-04-13T22:39:45.127Z,95.20
2023-04-13T22:42:12.280Z,95.48
2023-04-13T22:44:39.480Z,95.39
2023-04-13T22:47:07.125Z,95.34
2023-04-13T22:49:34.029Z,95.55
2023-04-13T22:52:01.595Z,95.71
2023-04-13T22:54:28.434Z,96.06
2023-04-13T22:56:56.292Z,95.85
2023-04-13T22:59:23.332Z,96.11
2023-04-13T23:01:50.908Z,96.29
2023-04-13T23:04:18.023Z,96.53
2023-04-13T23:06:46.655Z,96.65
2023-04-13T23:09:13.482Z,96.94
2023-04-13T23:11:41.030Z,97.35
2023-04-13T23:14:08.032Z,97.65
2023-04-13T23:16:35.456Z,97.74
2023-04-13T23:19:02.610Z,97.76
2023-04-13T23:21:31.192Z,97.79
2023-04-13T23:23:58.278Z,97.94
2023-04-13T23:26:26.021Z,97.89
2023-04-13T23:28:53.021Z,97.89
2023-04-13T23:31:21.008Z,98.11
2023-04-13T23:33:47.928Z,98.22
2023-04-13T23:36:16.161Z,98.48
2023-04-13T23:38:43.304Z,98.66
2023-04-13T23:41:11.161Z,98.79
2023-04-13T23:43:38.054Z,99.12
2023-04-13T23:46:05.322Z,99.20
2023-04-13T23:48:32.343Z,99.13
2023-04-13T23:50:59.752Z,99.06
2023-04-13T23:53:26.753Z,99.39
2023-04-13T23:55:54.103Z,99.85
2023-04-13T23:58:21.163Z,99.97
